Time,TemperatureF,DewpointF,PressureIn,WindDirection,WindDirectionDegrees,WindSpeedMPH,WindSpeedGustMPH,Humidity,HourlyPrecipIn,Conditions,Clouds,dailyrainin,SoftwareType,DateUTC
2013-03-11 00:04:00,40.4,34.0,30.23,SSE,155,2.0,5.0,77,0.00,,,0.00,weatherlink.com 1.10,2013-03-11 04:04:00,
2013-03-11 00:19:00,40.0,33.0,30.23,SSE,154,0.0,4.0,77,0.00,,,0.00,weatherlink.com 1.10,2013-03-11 04:19:00,
2013-03-11 00:35:00,39.4,33.0,30.25,East,98,0.0,3.0,79,0.00,,,0.00,weatherlink.com 1.10,2013-03-11 04:35:00,
2013-03-11 00:50:00,39.1,33.0,30.25,ESE,109,0.0,3.0,80,0.00,,,0.00,weatherlink.com 1.10,2013-03-11 04:50:00,
2013-03-11 01:05:00,39.0,33.0,30.23,ESE,117,2.0,5.0,80,0.00,,,0.00,weatherlink.com 1.10,2013-03-11 05:05:00,
2013-03-11 01:20:00,38.7,33.0,30.23,South,184,2.0,5.0,80,0.00,,,0.00,weatherlink.com 1.10,2013-03-11 05:20:00,
2013-03-11 01:35:00,38.3,33.0,30.23,SE,146,0.0,4.0,80,0.00,,,0.00,weatherlink.com 1.10,2013-03-11 05:35:00,
2013-03-11 01:50:00,37.9,33.0,30.22,ESE,121,3.0,6.0,81,0.00,,,0.00,weatherlink.com 1.10,2013-03-11 05:50:00,
2013-03-11 02:05:00,37.3,32.0,30.21,ESE,105,1.0,8.0,82,0.00,,,0.00,weatherlink.com 1.10,2013-03-11 06:05:00,
2013-03-11 02:20:00,36.8,32.0,30.22,SE,133,1.0,3.0,83,0.00,,,0.00,weatherlink.com 1.10,2013-03-11 06:20:00,
2013-03-11 02:35:00,36.3,32.0,30.22,ENE,75,0.0,2.0,84,0.00,,,0.00,weatherlink.com 1.10,2013-03-11 06:35:00,
2013-03-11 02:50:00,35.6,32.0,30.21,ENE,61,0.0,2.0,85,0.00,,,0.00,weatherlink.com 1.10,2013-03-11 06:50:00,
2013-03-11 03:05:00,35.2,31.0,30.21,East,80,0.0,2.0,86,0.00,,,0.00,weatherlink.com 1.10,2013-03-11 07:05:00,
2013-03-11 03:20:00,34.7,31.0,30.21,East,101,0.0,1.0,87,0.00,,,0.00,weatherlink.com 1.10,2013-03-11 07:20:00,
2013-03-11 03:35:00,34.3,31.0,30.21,ESE,117,0.0,3.0,88,0.00,,,0.00,weatherlink.com 1.10,2013-03-11 07:35:00,
2013-03-11 03:50:00,34.3,31.0,30.21,SE,137,0.0,1.0,88,0.00,,,0.00,weatherlink.com 1.10,2013-03-11 07:50:00,
2013-03-11 04:05:00,34.6,31.0,30.20,SSE,157,0.0,3.0,88,0.00,,,0.00,weatherlink.com 1.10,2013-03-11 08:05:00,
2013-03-11 04:20:00,34.6,31.0,30.20,ESE,123,1.0,2.0,88,0.00,,,0.00,weatherlink.com 1.10,2013-03-11 08:20:00,
2013-03-11 04:35:00,34.7,32.0,30.19,East,98,1.0,3.0,88,0.00,,,0.00,weatherlink.com 1.10,2013-03-11 08:35:00,
2013-03-11 04:50:00,34.8,31.0,30.19,ESE,111,1.0,2.0,87,0.00,,,0.00,weatherlink.com 1.10,2013-03-11 08:50:00,
2013-03-11 05:05:00,34.9,31.0,30.18,SE,128,2.0,3.0,87,0.00,,,0.00,weatherlink.com 1.10,2013-03-11 09:05:00,
2013-03-11 05:20:00,35.1,32.0,30.19,SSE,153,0.0,2.0,87,0.00,,,0.00,weatherlink.com 1.10,2013-03-11 09:20:00,
2013-03-11 05:35:00,35.1,32.0,30.19,ESE,115,0.0,2.0,87,0.00,,,0.00,weatherlink.com 1.10,2013-03-11 09:35:00,
2013-03-11 05:50:00,35.1,32.0,30.20,SE,124,0.0,1.0,88,0.00,,,0.00,weatherlink.com 1.10,2013-03-11 09:50:00,
2013-03-11 06:05:00,35.0,32.0,30.20,SSE,152,0.0,3.0,88,0.00,,,0.00,weatherlink.com 1.10,2013-03-11 10:05:00,
2013-03-11 06:23:00,34.9,32.0,30.19,SE,126,0.0,3.0,89,0.00,,,0.00,weatherlink.com 1.10,2013-03-11 10:23:00,
2013-03-11 06:35:00,34.7,32.0,30.19,ESE,122,1.0,2.0,89,0.00,,,0.00,weatherlink.com 1.10,2013-03-11 10:35:00,
2013-03-11 06:50:00,34.5,32.0,30.18,SE,126,0.0,3.0,90,0.00,,,0.00,weatherlink.com 1.10,2013-03-11 10:50:00,
2013-03-11 07:05:00,34.4,32.0,30.19,SE,128,0.0,5.0,90,0.00,,,0.00,weatherlink.com 1.10,2013-03-11 11:05:00,
2013-03-11 07:20:00,34.3,32.0,30.19,SE,144,0.0,3.0,90,0.00,,,0.00,weatherlink.com 1.10,2013-03-11 11:20:00,
2013-03-11 07:35:00,34.1,32.0,30.19,SE,144,0.0,1.0,90,0.00,,,0.00,weatherlink.com 1.10,2013-03-11 11:35:00,
2013-03-11 07:50:00,34.0,32.0,30.18,SSE,162,0.0,5.0,91,0.00,,,0.00,weatherlink.com 1.10,2013-03-11 11:50:00,
2013-03-11 08:05:00,34.5,32.0,30.18,SE,129,1.0,4.0,91,0.00,,,0.00,weatherlink.com 1.10,2013-03-11 12:05:00,
2013-03-11 08:20:00,35.1,33.0,30.18,SE,138,1.0,8.0,90,0.00,,,0.00,weatherlink.com 1.10,2013-03-11 12:20:00,
2013-03-11 08:35:00,35.7,33.0,30.18,SE,136,1.0,8.0,89,0.00,,,0.00,weatherlink.com 1.10,2013-03-11 12:35:00,
2013-03-11 08:50:00,36.4,33.0,30.18,South,177,0.0,4.0,87,0.00,,,0.00,weatherlink.com 1.10,2013-03-11 12:50:00,
2013-03-11 09:05:00,37.4,33.0,30.19,South,178,1.0,6.0,84,0.00,,,0.00,weatherlink.com 1.10,2013-03-11 13:05:00,
2013-03-11 09:20:00,38.1,33.0,30.19,South,172,0.0,7.0,83,0.00,,,0.00,weatherlink.com 1.10,2013-03-11 13:20:00,
2013-03-11 09:35:00,39.5,35.0,30.19,SSE,154,2.0,7.0,83,0.00,,,0.00,weatherlink.com 1.10,2013-03-11 13:35:00,
2013-03-11 09:50:00,40.1,35.0,30.20,SSE,153,1.0,3.0,81,0.00,,,0.00,weatherlink.com 1.10,2013-03-11 13:50:00,
2013-03-11 10:05:00,40.3,34.0,30.20,South,173,0.0,3.0,79,0.00,,,0.00,weatherlink.com 1.10,2013-03-11 14:05:00,
2013-03-11 10:20:00,40.6,35.0,30.19,SSE,157,2.0,4.0,79,0.00,,,0.00,weatherlink.com 1.10,2013-03-11 14:20:00,
2013-03-11 10:35:00,41.3,36.0,30.18,SSE,155,3.0,5.0,80,0.00,,,0.00,weatherlink.com 1.10,2013-03-11 14:35:00,
2013-03-11 10:51:00,42.2,35.0,30.19,South,178,0.0,4.0,77,0.00,,,0.00,weatherlink.com 1.10,2013-03-11 14:51:00,
2013-03-11 11:06:00,43.3,37.0,30.18,SE,144,0.0,2.0,79,0.00,,,0.00,weatherlink.com 1.10,2013-03-11 15:06:00,
2013-03-11 11:21:00,44.2,38.0,30.18,SSE,159,2.0,6.0,78,0.00,,,0.00,weatherlink.com 1.10,2013-03-11 15:21:00,
2013-03-11 11:51:00,45.0,38.0,30.17,ESE,103,5.0,6.0,77,0.00,,,0.00,weatherlink.com 1.10,2013-03-11 15:51:00,
2013-03-11 12:21:00,45.2,38.0,30.16,ESE,113,2.0,8.0,76,0.00,,,0.00,weatherlink.com 1.10,2013-03-11 16:21:00,
2013-03-11 12:36:00,45.2,38.0,30.16,ESE,113,0.0,9.0,76,0.00,,,0.00,weatherlink.com 1.10,2013-03-11 16:36:00,
2013-03-11 12:51:00,45.1,38.0,30.16,SE,140,0.0,10.0,77,0.00,,,0.00,weatherlink.com 1.10,2013-03-11 16:51:00,
2013-03-11 13:36:00,45.4,39.0,30.14,SE,140,1.0,9.0,78,0.00,,,0.00,weatherlink.com 1.10,2013-03-11 17:36:00,
2013-03-11 13:51:00,46.0,40.0,30.14,SE,145,3.0,7.0,78,0.00,,,0.00,weatherlink.com 1.10,2013-03-11 17:51:00,
2013-03-11 14:21:00,46.2,39.0,30.14,SSE,148,1.0,7.0,77,0.00,,,0.00,weatherlink.com 1.10,2013-03-11 18:21:00,
2013-03-11 14:36:00,46.2,39.0,30.13,East,98,2.0,7.0,77,0.00,,,0.00,weatherlink.com 1.10,2013-03-11 18:36:00,
2013-03-11 14:51:00,46.4,40.0,30.12,SSE,157,2.0,7.0,77,0.00,,,0.00,weatherlink.com 1.10,2013-03-11 18:51:00,
2013-03-11 15:06:00,46.8,40.0,30.12,SE,134,3.0,11.0,76,0.00,,,0.00,weatherlink.com 1.10,2013-03-11 19:06:00,
2013-03-11 15:21:00,46.7,39.0,30.11,SE,146,1.0,9.0,75,0.00,,,0.00,weatherlink.com 1.10,2013-03-11 19:21:00,
2013-03-11 15:36:00,46.7,39.0,30.10,South,172,0.0,7.0,74,0.00,,,0.00,weatherlink.com 1.10,2013-03-11 19:36:00,
2013-03-11 15:51:00,46.5,39.0,30.09,East,99,2.0,5.0,74,0.00,,,0.00,weatherlink.com 1.10,2013-03-11 19:51:00,
2013-03-11 16:06:00,46.7,38.0,30.09,SSE,148,5.0,9.0,73,0.00,,,0.00,weatherlink.com 1.10,2013-03-11 20:06:00,
2013-03-11 16:21:00,46.8,39.0,30.09,South,178,2.0,9.0,73,0.00,,,0.00,weatherlink.com 1.10,2013-03-11 20:21:00,
2013-03-11 16:36:00,47.0,38.0,30.06,SSE,167,3.0,12.0,72,0.00,,,0.00,weatherlink.com 1.10,2013-03-11 20:36:00,
2013-03-11 16:51:00,47.3,38.0,30.07,East,81,1.0,17.0,70,0.00,,,0.00,weatherlink.com 1.10,2013-03-11 20:51:00,
2013-03-11 17:06:00,47.5,38.0,30.06,East,101,3.0,12.0,69,0.00,,,0.00,weatherlink.com 1.10,2013-03-11 21:06:00,
2013-03-11 17:21:00,47.8,38.0,30.06,SSE,166,7.0,12.0,69,0.00,,,0.00,weatherlink.com 1.10,2013-03-11 21:21:00,
2013-03-11 17:36:00,48.4,38.0,30.06,SSE,167,5.0,9.0,67,0.00,,,0.00,weatherlink.com 1.10,2013-03-11 21:36:00,
2013-03-11 17:52:00,48.6,38.0,30.06,East,85,6.0,8.0,67,0.00,,,0.00,weatherlink.com 1.10,2013-03-11 21:52:00,
2013-03-11 18:06:00,49.0,38.0,30.06,SSE,153,3.0,17.0,66,0.00,,,0.00,weatherlink.com 1.10,2013-03-11 22:06:00,
2013-03-11 18:21:00,49.2,38.0,30.05,SSE,163,3.0,14.0,66,0.00,,,0.00,weatherlink.com 1.10,2013-03-11 22:21:00,
2013-03-11 18:36:00,49.2,39.0,30.05,SSE,154,9.0,11.0,67,0.00,,,0.00,weatherlink.com 1.10,2013-03-11 22:36:00,
2013-03-11 18:52:00,49.1,39.0,30.05,ESE,117,3.0,11.0,69,0.00,,,0.00,weatherlink.com 1.10,2013-03-11 22:52:00,
2013-03-11 19:07:00,48.7,40.0,30.05,WNW,289,2.0,11.0,71,0.00,,,0.00,weatherlink.com 1.10,2013-03-11 23:07:00,
2013-03-11 19:22:00,48.5,40.0,30.04,ESE,123,7.0,11.0,72,0.00,,,0.00,weatherlink.com 1.10,2013-03-11 23:22:00,
2013-03-11 19:37:00,48.2,40.0,30.04,SE,140,2.0,11.0,73,0.00,,,0.00,weatherlink.com 1.10,2013-03-11 23:37:00,
2013-03-11 19:52:00,48.1,40.0,30.04,ESE,118,5.0,11.0,74,0.00,,,0.00,weatherlink.com 1.10,2013-03-11 23:52:00,
2013-03-11 20:07:00,47.9,40.0,30.05,ESE,107,4.0,12.0,75,0.00,,,0.00,weatherlink.com 1.10,2013-03-12 00:07:00,
2013-03-11 20:22:00,47.7,40.0,30.04,ESE,118,3.0,14.0,76,0.00,,,0.00,weatherlink.com 1.10,2013-03-12 00:22:00,
2013-03-11 20:37:00,47.6,41.0,30.04,SSE,153,3.0,16.0,77,0.00,,,0.00,weatherlink.com 1.10,2013-03-12 00:37:00,
2013-03-11 20:52:00,47.6,41.0,30.04,SSE,159,2.0,14.0,77,0.00,,,0.00,weatherlink.com 1.10,2013-03-12 00:52:00,
2013-03-11 21:07:00,47.3,41.0,30.04,ENE,71,7.0,18.0,79,0.00,,,0.00,weatherlink.com 1.10,2013-03-12 01:07:00,
2013-03-11 21:22:00,47.2,41.0,30.03,South,182,18.0,18.0,79,0.00,,,0.00,weatherlink.com 1.10,2013-03-12 01:22:00,
2013-03-11 21:37:00,47.2,41.0,30.04,SSE,155,5.0,22.0,79,0.00,,,0.00,weatherlink.com 1.10,2013-03-12 01:37:00,
2013-03-11 21:52:00,47.4,41.0,30.04,SE,142,5.0,18.0,78,0.00,,,0.00,weatherlink.com 1.10,2013-03-12 01:52:00,
2013-03-11 22:07:00,47.4,42.0,30.04,ESE,105,4.0,19.0,80,0.00,,,0.00,weatherlink.com 1.10,2013-03-12 02:07:00,
2013-03-11 22:22:00,47.5,42.0,30.03,SSW,192,3.0,16.0,80,0.00,,,0.00,weatherlink.com 1.10,2013-03-12 02:22:00,
2013-03-11 22:37:00,47.8,42.0,30.05,East,98,7.0,15.0,81,0.00,,,0.00,weatherlink.com 1.10,2013-03-12 02:37:00,
2013-03-11 22:52:00,47.7,43.0,30.04,East,91,1.0,11.0,83,0.00,,,0.00,weatherlink.com 1.10,2013-03-12 02:52:00,
2013-03-11 23:07:00,47.3,43.0,30.02,NE,56,5.0,14.0,84,0.00,,,0.00,weatherlink.com 1.10,2013-03-12 03:07:00,
2013-03-11 23:22:00,47.1,43.0,30.03,SSW,204,13.0,15.0,85,0.00,,,0.00,weatherlink.com 1.10,2013-03-12 03:22:00,
2013-03-11 23:37:00,47.0,43.0,30.03,ENE,61,4.0,16.0,87,0.00,,,0.00,weatherlink.com 1.10,2013-03-12 03:37:00,
2013-03-11 23:52:00,46.8,44.0,30.02,ESE,121,5.0,15.0,88,0.00,,,0.00,weatherlink.com 1.10,2013-03-12 03:52:00,